Airfield :
LOGIN :

Register | Disclaimer

   EN    FR    IT 

 










Legend :    VFR   Marginal VFR   IFR   Intensive IFR   Very Intensive IFR
Visi :
Ceiling :
>= 8 km
>= 3000ft
5 to 8 km
1000 to 3000 ft
1500m to 5 km
500 to 1000 ft
800 to 1500m
200 to 500 ft
< 800m
< 200 ft
Symbols :   Thunderstorms  Fog  Heavy snow  Heavy precipitations  Wind > 20 kt
SIGMETs :     Misc.  Thunderstorms  Icing  Turbulence  Mountain Waves  Volcanic Ashes






- Airport Elevation : 433 ft
- IATA code : CCF


LFMK - Carcassonne

CURRENT METAR :
  • 271430Z AUTO 27022G37KT 9999 BKN042 OVC052 13/07 Q1013 NOSIG

EXPIRED METARs :
  • 271400Z AUTO 29010KT 9999 OVC048 13/09 Q1012 BECMG 28020G35KT RA
  • 271330Z AUTO 28013KT 9999 -RA OVC049/// ///TCU 12/08 Q1012 BECMG 28020G35KT RA BKN040 OVC050
  • 271300Z AUTO 27018G32KT 9000 BKN052/// OVC064/// ///CB 13/08 Q1013 BECMG RA BKN040 OVC050
  • 271230Z AUTO 29007KT 260V320 9999 -RA FEW054/// OVC068/// ///CB 12/09 Q1012 BECMG 28020G35KT RA BKN040 OVC050
  • 271200Z AUTO 26005KT 230V290 9999 FEW056/// OVC076/// ///CB 11/09 Q1013 BECMG 28020G35KT RA BKN040 OVC050

TAF TAF LFMK
Valid from the 27 at 15:00 until the 28 at 15:00 UTC


271400Z 2715/2815 28015KT 9999 RA OVC050
TEMPO 2715/2724 28020G35KT NSW
BECMG 2800/2803 28012KT NSC
BECMG 2803/2806 VRB02KT



MET'MAP, your aeronautical weather chart ! - Copyright ORBIFLY December 2007 - Disclaimer

ORBIFLY MET'MAP TEAM :

Programming & Development : Alexandra Zaïnal
Concept & original design : Baudouin d'Aumeries
Assistance for programming : Marc-Olivier Méhu
Technical & hardware support : Manuel Goepfert

Contact : metmap@orbifly.com




SOURCES & CREDITS :

   NOAA